Terminal Aerodrome Forecast
Issued by NWS Anchorage, AK

Home | Current Version | Previous Version | Text Only | Print | Product List | Glossary On
Versions: 1 2 3 4 5 6 7 8 9 10 11 12 13 14 15 16 17 18 19 20 21 22 23 24 25 26 27 28 29 30 31
544
FTAK31 PANC 121139
TAFANC
TAF
PANC 121139Z 1212/1318 34005KT P6SM VCSH BKN060 OVC100
     FM121400 34005KT P6SM BKN070 OVC100
     FM121800 34005KT P6SM VCSH SCT040 OVC070
     FM122200 36004KT P6SM BKN060 BKN100
     FM130700 14007KT P6SM VCSH SCT030 OVC070
     FM131300 35005KT P6SM VCSH SCT050 BKN070=

USA.gov is the U.S. government's official web portal to all federal, state and local government web resources and services.